sensor_id;sensor_type;location;lat;lon;timestamp;pressure;altitude;pressure_sealevel;temperature;humidity
70338;BME280;57757;53.198;19.646;2022-10-22T00:01:04;99802.28;;;8.92;66.40
70338;BME280;57757;53.198;19.646;2022-10-22T00:03:37;99792.18;;;8.93;66.37
70338;BME280;57757;53.198;19.646;2022-10-22T00:06:05;99794.59;;;8.93;66.37
70338;BME280;57757;53.198;19.646;2022-10-22T00:08:32;99791.88;;;8.91;66.35
70338;BME280;57757;53.198;19.646;2022-10-22T00:11:08;99791.71;;;8.90;66.53
70338;BME280;57757;53.198;19.646;2022-10-22T00:13:35;99791.38;;;8.90;66.39
70338;BME280;57757;53.198;19.646;2022-10-22T00:16:03;99787.59;;;8.90;66.32
70338;BME280;57757;53.198;19.646;2022-10-22T00:18:31;99793.96;;;8.91;66.43
70338;BME280;57757;53.198;19.646;2022-10-22T00:20:58;99792.52;;;8.93;66.52
70338;BME280;57757;53.198;19.646;2022-10-22T00:23:26;99789.02;;;8.94;66.70
70338;BME280;57757;53.198;19.646;2022-10-22T00:25:54;99791.08;;;8.96;66.71
70338;BME280;57757;53.198;19.646;2022-10-22T00:28:22;99786.41;;;8.95;66.74
70338;BME280;57757;53.198;19.646;2022-10-22T00:30:57;99784.83;;;8.96;66.71
70338;BME280;57757;53.198;19.646;2022-10-22T00:33:27;99778.90;;;8.97;66.60
70338;BME280;57757;53.198;19.646;2022-10-22T00:35:55;99778.35;;;8.99;66.74
70338;BME280;57757;53.198;19.646;2022-10-22T00:38:23;99772.79;;;8.99;66.68
70338;BME280;57757;53.198;19.646;2022-10-22T00:40:50;99771.14;;;9.03;67.00
70338;BME280;57757;53.198;19.646;2022-10-22T00:43:18;99770.70;;;9.06;67.02
70338;BME280;57757;53.198;19.646;2022-10-22T00:45:46;99768.38;;;9.09;67.05
70338;BME280;57757;53.198;19.646;2022-10-22T00:48:31;99765.60;;;9.09;66.84
70338;BME280;57757;53.198;19.646;2022-10-22T00:51:03;99763.85;;;9.10;67.02
70338;BME280;57757;53.198;19.646;2022-10-22T00:53:43;99759.16;;;9.10;66.97
70338;BME280;57757;53.198;19.646;2022-10-22T00:56:12;99759.13;;;9.12;66.97
70338;BME280;57757;53.198;19.646;2022-10-22T00:58:44;99759.01;;;9.09;66.92
70338;BME280;57757;53.198;19.646;2022-10-22T01:01:17;99752.98;;;9.07;66.99
70338;BME280;57757;53.198;19.646;2022-10-22T01:03:48;99748.48;;;9.07;67.04
70338;BME280;57757;53.198;19.646;2022-10-22T01:06:32;99744.67;;;9.07;67.14
70338;BME280;57757;53.198;19.646;2022-10-22T01:17:24;99736.70;;;9.13;67.16
70338;BME280;57757;53.198;19.646;2022-10-22T01:25:33;99734.41;;;9.22;67.26
70338;BME280;57757;53.198;19.646;2022-10-22T01:28:42;99736.20;;;9.20;67.26
70338;BME280;57757;53.198;19.646;2022-10-22T01:31:06;99727.57;;;9.19;67.28
70338;BME280;57757;53.198;19.646;2022-10-22T01:33:36;99733.65;;;9.18;67.11
70338;BME280;57757;53.198;19.646;2022-10-22T01:36:06;99728.29;;;9.17;67.19
70338;BME280;57757;53.198;19.646;2022-10-22T01:38:35;99731.20;;;9.20;67.24
70338;BME280;57757;53.198;19.646;2022-10-22T01:41:04;99730.61;;;9.22;67.41
70338;BME280;57757;53.198;19.646;2022-10-22T01:43:32;99730.06;;;9.23;67.37
70338;BME280;57757;53.198;19.646;2022-10-22T01:46:02;99730.58;;;9.23;67.47
70338;BME280;57757;53.198;19.646;2022-10-22T01:48:35;99729.89;;;9.23;67.52
70338;BME280;57757;53.198;19.646;2022-10-22T01:54:25;99730.23;;;9.23;67.46
70338;BME280;57757;53.198;19.646;2022-10-22T02:05:21;99724.25;;;9.32;67.62
70338;BME280;57757;53.198;19.646;2022-10-22T02:07:57;99718.52;;;9.33;67.68
70338;BME280;57757;53.198;19.646;2022-10-22T02:10:28;99717.88;;;9.31;67.55
70338;BME280;57757;53.198;19.646;2022-10-22T02:12:57;99718.27;;;9.29;67.55
70338;BME280;57757;53.198;19.646;2022-10-22T02:15:28;99712.54;;;9.29;67.69
70338;BME280;57757;53.198;19.646;2022-10-22T02:17:58;99716.16;;;9.30;67.62
70338;BME280;57757;53.198;19.646;2022-10-22T02:20:29;99718.36;;;9.32;67.64
70338;BME280;57757;53.198;19.646;2022-10-22T02:22:59;99716.77;;;9.34;67.78
70338;BME280;57757;53.198;19.646;2022-10-22T02:25:30;99715.89;;;9.34;67.82
70338;BME280;57757;53.198;19.646;2022-10-22T02:28:28;99719.02;;;9.34;67.88
70338;BME280;57757;53.198;19.646;2022-10-22T02:31:23;99717.09;;;9.35;67.95
70338;BME280;57757;53.198;19.646;2022-10-22T02:33:53;99719.17;;;9.35;67.92
70338;BME280;57757;53.198;19.646;2022-10-22T02:36:22;99716.06;;;9.35;67.90
70338;BME280;57757;53.198;19.646;2022-10-22T02:38:51;99712.36;;;9.36;67.97
70338;BME280;57757;53.198;19.646;2022-10-22T02:41:19;99712.15;;;9.38;67.94
70338;BME280;57757;53.198;19.646;2022-10-22T02:43:53;99710.17;;;9.40;68.10
70338;BME280;57757;53.198;19.646;2022-10-22T02:46:22;99713.28;;;9.41;68.08
70338;BME280;57757;53.198;19.646;2022-10-22T02:48:50;99714.50;;;9.40;67.94
70338;BME280;57757;53.198;19.646;2022-10-22T02:51:18;99707.38;;;9.41;68.12
70338;BME280;57757;53.198;19.646;2022-10-22T02:53:46;99703.91;;;9.41;68.14
70338;BME280;57757;53.198;19.646;2022-10-22T02:56:13;99699.38;;;9.42;68.07
70338;BME280;57757;53.198;19.646;2022-10-22T02:58:41;99702.59;;;9.45;68.16
70338;BME280;57757;53.198;19.646;2022-10-22T03:01:08;99704.73;;;9.49;68.23
70338;BME280;57757;53.198;19.646;2022-10-22T03:03:41;99703.42;;;9.53;68.22
70338;BME280;57757;53.198;19.646;2022-10-22T03:06:09;99703.52;;;9.55;68.25
70338;BME280;57757;53.198;19.646;2022-10-22T03:08:36;99704.01;;;9.56;68.35
70338;BME280;57757;53.198;19.646;2022-10-22T03:11:04;99698.65;;;9.56;68.19
70338;BME280;57757;53.198;19.646;2022-10-22T03:13:32;99697.17;;;9.53;68.44
70338;BME280;57757;53.198;19.646;2022-10-22T03:15:59;99697.69;;;9.53;68.18
70338;BME280;57757;53.198;19.646;2022-10-22T03:18:27;99694.55;;;9.53;68.06
70338;BME280;57757;53.198;19.646;2022-10-22T03:24:05;99696.73;;;9.56;68.32
70338;BME280;57757;53.198;19.646;2022-10-22T03:26:36;99701.02;;;9.58;68.23
70338;BME280;57757;53.198;19.646;2022-10-22T03:29:04;99696.27;;;9.60;68.48
70338;BME280;57757;53.198;19.646;2022-10-22T03:31:32;99699.05;;;9.60;68.20
70338;BME280;57757;53.198;19.646;2022-10-22T03:34:00;99701.81;;;9.61;68.16
70338;BME280;57757;53.198;19.646;2022-10-22T03:36:27;99697.25;;;9.63;68.25
70338;BME280;57757;53.198;19.646;2022-10-22T03:38:55;99695.94;;;9.66;68.45
70338;BME280;57757;53.198;19.646;2022-10-22T03:41:22;99697.92;;;9.70;68.42
70338;BME280;57757;53.198;19.646;2022-10-22T03:43:50;99696.59;;;9.74;68.32
70338;BME280;57757;53.198;19.646;2022-10-22T03:46:19;99696.34;;;9.76;68.45
70338;BME280;57757;53.198;19.646;2022-10-22T03:48:47;99697.47;;;9.80;68.53
70338;BME280;57757;53.198;19.646;2022-10-22T03:51:14;99697.92;;;9.82;68.68
70338;BME280;57757;53.198;19.646;2022-10-22T03:53:42;99705.36;;;9.83;68.65
70338;BME280;57757;53.198;19.646;2022-10-22T03:56:10;99707.95;;;9.83;68.49
70338;BME280;57757;53.198;19.646;2022-10-22T03:58:39;99709.89;;;9.82;68.43
70338;BME280;57757;53.198;19.646;2022-10-22T04:01:09;99709.41;;;9.81;68.33
70338;BME280;57757;53.198;19.646;2022-10-22T04:03:38;99714.36;;;9.78;68.40
70338;BME280;57757;53.198;19.646;2022-10-22T04:06:08;99710.59;;;9.76;68.56
70338;BME280;57757;53.198;19.646;2022-10-22T04:08:41;99717.05;;;9.75;68.60
70338;BME280;57757;53.198;19.646;2022-10-22T04:11:10;99714.31;;;9.73;68.76
70338;BME280;57757;53.198;19.646;2022-10-22T04:13:38;99716.66;;;9.70;68.59
70338;BME280;57757;53.198;19.646;2022-10-22T04:16:13;99714.46;;;9.68;68.74
70338;BME280;57757;53.198;19.646;2022-10-22T04:18:42;99711.33;;;9.69;68.65
70338;BME280;57757;53.198;19.646;2022-10-22T04:21:12;99705.36;;;9.70;68.86
70338;BME280;57757;53.198;19.646;2022-10-22T04:23:45;99697.86;;;9.72;68.92
70338;BME280;57757;53.198;19.646;2022-10-22T04:26:14;99691.88;;;9.75;68.95
70338;BME280;57757;53.198;19.646;2022-10-22T04:28:42;99690.23;;;9.77;69.07
70338;BME280;57757;53.198;19.646;2022-10-22T04:31:12;99685.16;;;9.79;69.02
70338;BME280;57757;53.198;19.646;2022-10-22T04:33:40;99683.86;;;9.82;69.01
70338;BME280;57757;53.198;19.646;2022-10-22T04:36:09;99679.95;;;9.85;68.88
70338;BME280;57757;53.198;19.646;2022-10-22T04:38:38;99680.88;;;9.88;69.03
70338;BME280;57757;53.198;19.646;2022-10-22T04:41:35;99683.93;;;9.91;69.00
70338;BME280;57757;53.198;19.646;2022-10-22T04:44:05;99686.88;;;9.92;69.00
70338;BME280;57757;53.198;19.646;2022-10-22T04:46:40;99681.52;;;9.91;69.10
70338;BME280;57757;53.198;19.646;2022-10-22T04:49:08;99675.80;;;9.91;69.00
70338;BME280;57757;53.198;19.646;2022-10-22T04:51:35;99679.61;;;9.90;69.05
70338;BME280;57757;53.198;19.646;2022-10-22T04:54:03;99678.38;;;9.92;69.13
70338;BME280;57757;53.198;19.646;2022-10-22T04:56:32;99672.91;;;9.94;69.09
70338;BME280;57757;53.198;19.646;2022-10-22T04:59:03;99672.34;;;9.96;69.11
70338;BME280;57757;53.198;19.646;2022-10-22T05:01:37;99671.05;;;9.98;69.24
70338;BME280;57757;53.198;19.646;2022-10-22T05:04:12;99676.42;;;9.99;69.18
70338;BME280;57757;53.198;19.646;2022-10-22T05:06:41;99673.79;;;10.00;69.01
70338;BME280;57757;53.198;19.646;2022-10-22T05:09:15;99670.84;;;9.99;69.16
70338;BME280;57757;53.198;19.646;2022-10-22T05:11:45;99674.45;;;10.01;69.16
70338;BME280;57757;53.198;19.646;2022-10-22T05:14:18;99670.25;;;10.02;69.18
70338;BME280;57757;53.198;19.646;2022-10-22T05:16:46;99671.01;;;10.05;69.18
70338;BME280;57757;53.198;19.646;2022-10-22T05:19:24;99670.02;;;10.09;69.31
70338;BME280;57757;53.198;19.646;2022-10-22T05:21:54;99669.45;;;10.12;69.42
70338;BME280;57757;53.198;19.646;2022-10-22T05:24:24;99671.66;;;10.13;69.30
70338;BME280;57757;53.198;19.646;2022-10-22T05:29:51;99676.30;;;10.15;69.20
70338;BME280;57757;53.198;19.646;2022-10-22T05:32:19;99675.50;;;10.13;69.19
70338;BME280;57757;53.198;19.646;2022-10-22T05:34:46;99672.50;;;10.15;69.41
70338;BME280;57757;53.198;19.646;2022-10-22T05:37:14;99673.99;;;10.18;69.51
70338;BME280;57757;53.198;19.646;2022-10-22T05:39:41;99677.45;;;10.18;69.47
70338;BME280;57757;53.198;19.646;2022-10-22T05:42:09;99685.10;;;10.18;69.51
70338;BME280;57757;53.198;19.646;2022-10-22T05:44:36;99687.36;;;10.18;69.54
70338;BME280;57757;53.198;19.646;2022-10-22T05:47:05;99687.41;;;10.16;69.59
70338;BME280;57757;53.198;19.646;2022-10-22T05:49:32;99689.65;;;10.17;69.62
70338;BME280;57757;53.198;19.646;2022-10-22T05:52:00;99692.16;;;10.20;69.75
70338;BME280;57757;53.198;19.646;2022-10-22T05:54:28;99688.83;;;10.21;69.63
70338;BME280;57757;53.198;19.646;2022-10-22T05:56:55;99687.25;;;10.22;69.68
70338;BME280;57757;53.198;19.646;2022-10-22T05:59:23;99691.04;;;10.23;69.72
70338;BME280;57757;53.198;19.646;2022-10-22T06:01:50;99688.58;;;10.24;69.64
70338;BME280;57757;53.198;19.646;2022-10-22T06:04:18;99688.17;;;10.25;69.80
70338;BME280;57757;53.198;19.646;2022-10-22T06:06:48;99692.05;;;10.30;69.74
70338;BME280;57757;53.198;19.646;2022-10-22T06:11:54;99691.52;;;10.35;69.76
70338;BME280;57757;53.198;19.646;2022-10-22T06:14:22;99691.14;;;10.37;69.90
70338;BME280;57757;53.198;19.646;2022-10-22T06:16:50;99697.55;;;10.37;69.91
70338;BME280;57757;53.198;19.646;2022-10-22T06:19:21;99706.97;;;10.36;69.81
70338;BME280;57757;53.198;19.646;2022-10-22T06:21:49;99709.05;;;10.37;69.73
70338;BME280;57757;53.198;19.646;2022-10-22T06:24:17;99711.82;;;10.36;69.87
70338;BME280;57757;53.198;19.646;2022-10-22T06:26:48;99712.96;;;10.34;69.71
70338;BME280;57757;53.198;19.646;2022-10-22T06:29:17;99720.63;;;10.33;69.90
70338;BME280;57757;53.198;19.646;2022-10-22T06:31:45;99725.05;;;10.31;69.91
70338;BME280;57757;53.198;19.646;2022-10-22T06:34:13;99730.99;;;10.29;69.96
70338;BME280;57757;53.198;19.646;2022-10-22T06:36:43;99727.20;;;10.28;70.00
70338;BME280;57757;53.198;19.646;2022-10-22T06:39:13;99721.14;;;10.27;70.22
70338;BME280;57757;53.198;19.646;2022-10-22T06:41:41;99724.73;;;10.29;70.06
70338;BME280;57757;53.198;19.646;2022-10-22T06:44:16;99723.70;;;10.29;70.28
70338;BME280;57757;53.198;19.646;2022-10-22T06:46:47;99719.64;;;10.31;70.25
70338;BME280;57757;53.198;19.646;2022-10-22T06:49:15;99714.98;;;10.36;70.50
70338;BME280;57757;53.198;19.646;2022-10-22T06:51:43;99714.27;;;10.42;70.47
70338;BME280;57757;53.198;19.646;2022-10-22T06:54:11;99705.73;;;10.48;70.48
70338;BME280;57757;53.198;19.646;2022-10-22T06:56:38;99707.95;;;10.55;70.62
70338;BME280;57757;53.198;19.646;2022-10-22T06:59:06;99711.10;;;10.60;70.52
70338;BME280;57757;53.198;19.646;2022-10-22T07:01:34;99720.38;;;10.63;70.47
70338;BME280;57757;53.198;19.646;2022-10-22T07:04:03;99717.58;;;10.65;70.59
70338;BME280;57757;53.198;19.646;2022-10-22T07:06:31;99715.83;;;10.65;70.45
70338;BME280;57757;53.198;19.646;2022-10-22T07:08:59;99715.23;;;10.67;70.55
70338;BME280;57757;53.198;19.646;2022-10-22T07:11:29;99717.96;;;10.69;70.47
70338;BME280;57757;53.198;19.646;2022-10-22T07:13:58;99717.70;;;10.72;70.57
70338;BME280;57757;53.198;19.646;2022-10-22T07:16:26;99725.73;;;10.75;70.69
70338;BME280;57757;53.198;19.646;2022-10-22T07:18:59;99728.60;;;10.79;70.76
70338;BME280;57757;53.198;19.646;2022-10-22T07:21:28;99732.21;;;10.80;70.77
70338;BME280;57757;53.198;19.646;2022-10-22T07:23:56;99733.16;;;10.82;70.77
70338;BME280;57757;53.198;19.646;2022-10-22T07:26:26;99736.58;;;10.85;70.71
70338;BME280;57757;53.198;19.646;2022-10-22T07:28:58;99737.86;;;10.88;70.68
70338;BME280;57757;53.198;19.646;2022-10-22T07:31:26;99731.48;;;10.92;70.73
70338;BME280;57757;53.198;19.646;2022-10-22T07:33:54;99735.83;;;10.97;70.93
70338;BME280;57757;53.198;19.646;2022-10-22T07:36:22;99729.92;;;11.02;70.84
70338;BME280;57757;53.198;19.646;2022-10-22T07:38:54;99734.73;;;11.05;70.82
70338;BME280;57757;53.198;19.646;2022-10-22T07:41:22;99741.63;;;11.07;70.90
70338;BME280;57757;53.198;19.646;2022-10-22T07:43:50;99741.44;;;11.07;70.71
70338;BME280;57757;53.198;19.646;2022-10-22T07:46:18;99745.63;;;11.07;70.79
70338;BME280;57757;53.198;19.646;2022-10-22T07:48:46;99748.41;;;11.07;70.84
70338;BME280;57757;53.198;19.646;2022-10-22T07:51:14;99753.78;;;11.08;70.95
70338;BME280;57757;53.198;19.646;2022-10-22T07:53:42;99761.94;;;11.08;70.89
70338;BME280;57757;53.198;19.646;2022-10-22T07:56:10;99762.69;;;11.06;70.95
70338;BME280;57757;53.198;19.646;2022-10-22T07:58:37;99763.71;;;11.07;70.99
70338;BME280;57757;53.198;19.646;2022-10-22T08:01:06;99767.47;;;11.09;71.03
70338;BME280;57757;53.198;19.646;2022-10-22T08:03:33;99772.26;;;11.12;71.05
70338;BME280;57757;53.198;19.646;2022-10-22T08:06:01;99771.66;;;11.14;70.98
70338;BME280;57757;53.198;19.646;2022-10-22T08:08:29;99776.42;;;11.18;71.18
70338;BME280;57757;53.198;19.646;2022-10-22T08:10:59;99770.97;;;11.19;71.04
70338;BME280;57757;53.198;19.646;2022-10-22T08:13:27;99777.53;;;11.21;71.10
70338;BME280;57757;53.198;19.646;2022-10-22T08:15:58;99779.23;;;11.22;71.30
70338;BME280;57757;53.198;19.646;2022-10-22T08:18:27;99777.32;;;11.27;71.34
70338;BME280;57757;53.198;19.646;2022-10-22T08:20:55;99773.90;;;11.36;71.51
70338;BME280;57757;53.198;19.646;2022-10-22T08:23:23;99770.63;;;11.45;71.38
70338;BME280;57757;53.198;19.646;2022-10-22T08:25:55;99773.76;;;11.50;71.32
70338;BME280;57757;53.198;19.646;2022-10-22T08:28:23;99775.36;;;11.55;71.35
70338;BME280;57757;53.198;19.646;2022-10-22T08:30:51;99775.30;;;11.61;71.37
70338;BME280;57757;53.198;19.646;2022-10-22T08:33:19;99780.80;;;11.68;71.58
70338;BME280;57757;53.198;19.646;2022-10-22T08:35:48;99780.34;;;11.72;71.55
70338;BME280;57757;53.198;19.646;2022-10-22T08:38:16;99782.88;;;11.75;71.43
70338;BME280;57757;53.198;19.646;2022-10-22T08:40:48;99781.32;;;11.75;71.31
70338;BME280;57757;53.198;19.646;2022-10-22T08:49:02;99771.06;;;11.74;71.48
70338;BME280;57757;53.198;19.646;2022-10-22T08:51:33;99773.49;;;11.74;71.57
70338;BME280;57757;53.198;19.646;2022-10-22T09:05:37;99779.29;;;11.78;71.77
70338;BME280;57757;53.198;19.646;2022-10-22T09:08:13;99782.46;;;11.82;71.84
70338;BME280;57757;53.198;19.646;2022-10-22T09:10:47;99788.55;;;11.82;71.87
70338;BME280;57757;53.198;19.646;2022-10-22T09:13:18;99785.99;;;11.80;71.63
70338;BME280;57757;53.198;19.646;2022-10-22T09:21:27;99776.39;;;11.91;71.90
70338;BME280;57757;53.198;19.646;2022-10-22T09:26:34;99770.86;;;11.94;71.91
70338;BME280;57757;53.198;19.646;2022-10-22T09:29:03;99769.88;;;11.97;71.88
70338;BME280;57757;53.198;19.646;2022-10-22T09:31:32;99766.22;;;12.02;72.02
70338;BME280;57757;53.198;19.646;2022-10-22T09:34:00;99764.79;;;12.08;72.03
70338;BME280;57757;53.198;19.646;2022-10-22T09:36:33;99763.48;;;12.16;72.15
70338;BME280;57757;53.198;19.646;2022-10-22T09:39:01;99760.08;;;12.23;72.17
70338;BME280;57757;53.198;19.646;2022-10-22T09:41:30;99754.42;;;12.34;72.27
70338;BME280;57757;53.198;19.646;2022-10-22T09:43:58;99756.15;;;12.43;72.17
70338;BME280;57757;53.198;19.646;2022-10-22T09:46:28;99764.27;;;12.51;72.15
70338;BME280;57757;53.198;19.646;2022-10-22T09:49:03;99769.18;;;12.54;71.82
70338;BME280;57757;53.198;19.646;2022-10-22T09:51:50;99771.33;;;12.53;71.85
70338;BME280;57757;53.198;19.646;2022-10-22T09:56:54;99774.14;;;12.43;71.70
70338;BME280;57757;53.198;19.646;2022-10-22T09:59:29;99766.96;;;12.39;71.75
70338;BME280;57757;53.198;19.646;2022-10-22T10:02:00;99770.55;;;12.41;71.90
70338;BME280;57757;53.198;19.646;2022-10-22T10:04:52;99773.79;;;12.43;72.03
70338;BME280;57757;53.198;19.646;2022-10-22T10:07:24;99787.36;;;12.44;71.88
70338;BME280;57757;53.198;19.646;2022-10-22T10:09:52;99781.75;;;12.40;71.75
70338;BME280;57757;53.198;19.646;2022-10-22T10:20:53;99779.46;;;12.26;71.94
70338;BME280;57757;53.198;19.646;2022-10-22T10:26:30;99778.83;;;12.25;72.08
70338;BME280;57757;53.198;19.646;2022-10-22T10:29:21;99772.16;;;12.26;72.14
70338;BME280;57757;53.198;19.646;2022-10-22T10:32:16;99780.16;;;12.31;72.24
70338;BME280;57757;53.198;19.646;2022-10-22T10:37:45;99787.17;;;12.35;72.27
70338;BME280;57757;53.198;19.646;2022-10-22T10:42:54;99784.04;;;12.39;72.27
70338;BME280;57757;53.198;19.646;2022-10-22T10:57:06;99795.36;;;12.39;72.43
70338;BME280;57757;53.198;19.646;2022-10-22T10:59:42;99788.23;;;12.39;72.24
70338;BME280;57757;53.198;19.646;2022-10-22T11:07:57;99773.23;;;12.44;72.36
70338;BME280;57757;53.198;19.646;2022-10-22T11:10:30;99767.40;;;12.46;72.52
70338;BME280;57757;53.198;19.646;2022-10-22T11:13:42;99760.19;;;12.47;72.54
70338;BME280;57757;53.198;19.646;2022-10-22T11:16:31;99762.57;;;12.49;72.44
70338;BME280;57757;53.198;19.646;2022-10-22T11:19:13;99759.86;;;12.52;72.52
70338;BME280;57757;53.198;19.646;2022-10-22T11:28:12;99760.69;;;12.48;72.67
70338;BME280;57757;53.198;19.646;2022-10-22T11:30:44;99765.16;;;12.50;72.57
70338;BME280;57757;53.198;19.646;2022-10-22T11:33:18;99764.33;;;12.49;72.53
70338;BME280;57757;53.198;19.646;2022-10-22T11:35:49;99766.85;;;12.51;72.67
70338;BME280;57757;53.198;19.646;2022-10-22T11:38:21;99767.45;;;12.54;72.76
70338;BME280;57757;53.198;19.646;2022-10-22T11:40:59;99767.39;;;12.55;72.71
70338;BME280;57757;53.198;19.646;2022-10-22T11:43:32;99777.31;;;12.56;72.69
70338;BME280;57757;53.198;19.646;2022-10-22T11:46:27;99777.73;;;12.54;72.68
70338;BME280;57757;53.198;19.646;2022-10-22T11:49:23;99779.06;;;12.51;72.68
70338;BME280;57757;53.198;19.646;2022-10-22T11:51:48;99775.50;;;12.49;72.69
70338;BME280;57757;53.198;19.646;2022-10-22T12:00:08;99768.90;;;12.48;72.83
70338;BME280;57757;53.198;19.646;2022-10-22T12:02:44;99764.31;;;12.49;72.92
70338;BME280;57757;53.198;19.646;2022-10-22T12:05:32;99768.00;;;12.49;73.06
70338;BME280;57757;53.198;19.646;2022-10-22T12:08:13;99766.18;;;12.50;72.91
70338;BME280;57757;53.198;19.646;2022-10-22T12:11:03;99760.75;;;12.51;72.84
70338;BME280;57757;53.198;19.646;2022-10-22T12:13:50;99760.40;;;12.51;72.91
70338;BME280;57757;53.198;19.646;2022-10-22T12:16:22;99756.36;;;12.52;73.00
70338;BME280;57757;53.198;19.646;2022-10-22T12:19:24;99756.15;;;12.53;73.08
70338;BME280;57757;53.198;19.646;2022-10-22T12:21:57;99753.95;;;12.56;73.15
70338;BME280;57757;53.198;19.646;2022-10-22T12:24:29;99751.39;;;12.59;73.14
70338;BME280;57757;53.198;19.646;2022-10-22T12:26:58;99749.59;;;12.60;73.30
70338;BME280;57757;53.198;19.646;2022-10-22T12:29:26;99750.23;;;12.61;73.22
70338;BME280;57757;53.198;19.646;2022-10-22T12:31:54;99752.27;;;12.63;73.03
70338;BME280;57757;53.198;19.646;2022-10-22T12:34:23;99750.67;;;12.64;73.21
70338;BME280;57757;53.198;19.646;2022-10-22T12:36:53;99752.48;;;12.66;73.08
70338;BME280;57757;53.198;19.646;2022-10-22T12:39:24;99750.90;;;12.66;73.07
70338;BME280;57757;53.198;19.646;2022-10-22T12:41:54;99751.68;;;12.69;73.28
70338;BME280;57757;53.198;19.646;2022-10-22T12:44:21;99752.23;;;12.73;73.24
70338;BME280;57757;53.198;19.646;2022-10-22T12:46:49;99755.07;;;12.72;73.13
70338;BME280;57757;53.198;19.646;2022-10-22T12:49:27;99752.65;;;12.71;73.13
70338;BME280;57757;53.198;19.646;2022-10-22T12:52:02;99748.75;;;12.68;73.13
70338;BME280;57757;53.198;19.646;2022-10-22T12:54:32;99750.70;;;12.67;73.14
70338;BME280;57757;53.198;19.646;2022-10-22T12:57:00;99753.68;;;12.67;73.20
70338;BME280;57757;53.198;19.646;2022-10-22T12:59:33;99757.55;;;12.66;73.21
70338;BME280;57757;53.198;19.646;2022-10-22T13:02:13;99753.00;;;12.66;73.34
70338;BME280;57757;53.198;19.646;2022-10-22T13:05:05;99757.02;;;12.67;73.32
70338;BME280;57757;53.198;19.646;2022-10-22T13:07:54;99757.98;;;12.64;73.23
70338;BME280;57757;53.198;19.646;2022-10-22T13:10:33;99761.95;;;12.60;73.25
70338;BME280;57757;53.198;19.646;2022-10-22T13:13:02;99756.54;;;12.56;73.35
70338;BME280;57757;53.198;19.646;2022-10-22T13:15:34;99758.30;;;12.56;73.36
70338;BME280;57757;53.198;19.646;2022-10-22T13:18:06;99754.38;;;12.58;73.39
70338;BME280;57757;53.198;19.646;2022-10-22T13:20:54;99755.30;;;12.61;73.43
70338;BME280;57757;53.198;19.646;2022-10-22T13:23:24;99754.30;;;12.65;73.55
70338;BME280;57757;53.198;19.646;2022-10-22T13:26:12;99755.26;;;12.67;73.43
70338;BME280;57757;53.198;19.646;2022-10-22T13:28:41;99757.80;;;12.69;73.52
70338;BME280;57757;53.198;19.646;2022-10-22T13:31:23;99752.22;;;12.69;73.53
70338;BME280;57757;53.198;19.646;2022-10-22T13:33:55;99751.48;;;12.69;73.45
70338;BME280;57757;53.198;19.646;2022-10-22T13:36:23;99746.83;;;12.68;73.50
70338;BME280;57757;53.198;19.646;2022-10-22T13:38:51;99751.90;;;12.68;73.40
70338;BME280;57757;53.198;19.646;2022-10-22T13:41:26;99748.01;;;12.65;73.43
70338;BME280;57757;53.198;19.646;2022-10-22T13:43:54;99747.55;;;12.63;73.64
70338;BME280;57757;53.198;19.646;2022-10-22T13:46:23;99748.58;;;12.64;73.59
70338;BME280;57757;53.198;19.646;2022-10-22T13:48:53;99740.55;;;12.64;73.73
70338;BME280;57757;53.198;19.646;2022-10-22T13:51:24;99744.73;;;12.64;73.54
70338;BME280;57757;53.198;19.646;2022-10-22T13:53:54;99744.62;;;12.67;73.72
70338;BME280;57757;53.198;19.646;2022-10-22T13:56:22;99744.87;;;12.69;73.69
70338;BME280;57757;53.198;19.646;2022-10-22T13:58:50;99743.92;;;12.67;73.69
70338;BME280;57757;53.198;19.646;2022-10-22T14:01:27;99744.48;;;12.66;73.71
70338;BME280;57757;53.198;19.646;2022-10-22T14:03:58;99747.70;;;12.64;73.65
70338;BME280;57757;53.198;19.646;2022-10-22T14:06:32;99749.69;;;12.62;73.58
70338;BME280;57757;53.198;19.646;2022-10-22T14:09:06;99750.34;;;12.63;73.76
70338;BME280;57757;53.198;19.646;2022-10-22T14:11:37;99752.70;;;12.65;73.82
70338;BME280;57757;53.198;19.646;2022-10-22T14:14:05;99751.44;;;12.66;73.92
70338;BME280;57757;53.198;19.646;2022-10-22T14:16:35;99754.21;;;12.67;73.85
70338;BME280;57757;53.198;19.646;2022-10-22T14:19:06;99749.35;;;12.66;73.83
70338;BME280;57757;53.198;19.646;2022-10-22T14:21:36;99752.04;;;12.65;73.73
70338;BME280;57757;53.198;19.646;2022-10-22T14:24:04;99750.41;;;12.66;73.81
70338;BME280;57757;53.198;19.646;2022-10-22T14:26:37;99745.82;;;12.67;73.86
70338;BME280;57757;53.198;19.646;2022-10-22T14:29:04;99743.36;;;12.68;73.88
70338;BME280;57757;53.198;19.646;2022-10-22T14:31:42;99745.71;;;12.65;73.76
70338;BME280;57757;53.198;19.646;2022-10-22T14:34:14;99749.73;;;12.61;73.72
70338;BME280;57757;53.198;19.646;2022-10-22T14:36:42;99746.63;;;12.60;73.86
70338;BME280;57757;53.198;19.646;2022-10-22T14:39:11;99750.44;;;12.60;73.92
70338;BME280;57757;53.198;19.646;2022-10-22T14:41:39;99747.25;;;12.62;74.03
70338;BME280;57757;53.198;19.646;2022-10-22T14:44:11;99751.20;;;12.64;73.93
70338;BME280;57757;53.198;19.646;2022-10-22T14:46:40;99749.27;;;12.64;73.96
70338;BME280;57757;53.198;19.646;2022-10-22T14:49:11;99749.13;;;12.63;73.95
70338;BME280;57757;53.198;19.646;2022-10-22T14:51:39;99748.95;;;12.63;73.97
70338;BME280;57757;53.198;19.646;2022-10-22T14:54:06;99753.30;;;12.64;73.99
70338;BME280;57757;53.198;19.646;2022-10-22T14:56:34;99753.73;;;12.66;74.14
70338;BME280;57757;53.198;19.646;2022-10-22T14:59:03;99751.10;;;12.70;74.16
70338;BME280;57757;53.198;19.646;2022-10-22T15:01:31;99749.05;;;12.74;74.25
70338;BME280;57757;53.198;19.646;2022-10-22T15:03:58;99750.61;;;12.78;74.30